Fishkill, New York
Current Conditions -  °F | °C
As of 9:53 PM on Monday 20 Oct 2014 (Local Time) from KPOU Reporting Station
Clear Clear  
Wind Chill: 52°   Ceiling: Unl
Heat Index: 52°   Visibility: 10mi
Dew Point: 38°   Wind: 3mph
Humidity: 59%   Direction: 120°ESE
Pressure: 29.96"   Gusts: NA
Location:  41.54°N, 73.9°W
Report Text: KPOU 210153Z AUTO 12003KT 10SM CLR 11/03 A2996 RMK AO2 SLP143 T01110033 TSNO
Loading
Personal Weather Stations






























Interactive Weather Map
Tropical Storm Tracking
New forecast layout! Learn more

10-Day Weather Forecast

Advertisements
Track Severe Weather on mobile